sensor_id;sensor_type;location;lat;lon;timestamp;temperature;humidity
74946;HTU21D;63509;45.250;38.102;2023-09-19T00:01:42;17.10;50.63
74946;HTU21D;63509;45.250;38.102;2023-09-19T00:04:12;17.07;50.69
74946;HTU21D;63509;45.250;38.102;2023-09-19T00:06:40;17.04;50.77
74946;HTU21D;63509;45.250;38.102;2023-09-19T00:09:07;17.01;50.84
74946;HTU21D;63509;45.250;38.102;2023-09-19T00:11:37;16.98;50.88
74946;HTU21D;63509;45.250;38.102;2023-09-19T00:14:04;16.93;50.98
74946;HTU21D;63509;45.250;38.102;2023-09-19T00:16:34;16.89;51.03
74946;HTU21D;63509;45.250;38.102;2023-09-19T00:19:02;16.85;51.11
74946;HTU21D;63509;45.250;38.102;2023-09-19T00:21:31;16.82;51.14
74946;HTU21D;63509;45.250;38.102;2023-09-19T00:23:57;16.81;51.24
74946;HTU21D;63509;45.250;38.102;2023-09-19T00:26:24;16.81;51.26
74946;HTU21D;63509;45.250;38.102;2023-09-19T00:28:52;16.78;51.22
74946;HTU21D;63509;45.250;38.102;2023-09-19T00:31:18;16.75;51.36
74946;HTU21D;63509;45.250;38.102;2023-09-19T00:33:45;16.74;51.37
74946;HTU21D;63509;45.250;38.102;2023-09-19T00:36:11;16.71;51.40
74946;HTU21D;63509;45.250;38.102;2023-09-19T00:38:37;16.70;51.48
74946;HTU21D;63509;45.250;38.102;2023-09-19T00:41:04;16.66;51.58
74946;HTU21D;63509;45.250;38.102;2023-09-19T00:43:30;16.61;51.67
74946;HTU21D;63509;45.250;38.102;2023-09-19T00:46:00;16.57;51.74
74946;HTU21D;63509;45.250;38.102;2023-09-19T00:48:29;16.52;51.83
74946;HTU21D;63509;45.250;38.102;2023-09-19T00:50:59;16.46;51.85
74946;HTU21D;63509;45.250;38.102;2023-09-19T00:53:28;16.42;52.05
74946;HTU21D;63509;45.250;38.102;2023-09-19T00:55:56;16.35;52.17
74946;HTU21D;63509;45.250;38.102;2023-09-19T00:58:23;16.30;52.26
74946;HTU21D;63509;45.250;38.102;2023-09-19T01:00:49;16.27;52.34
74946;HTU21D;63509;45.250;38.102;2023-09-19T01:03:17;16.25;52.43
74946;HTU21D;63509;45.250;38.102;2023-09-19T01:05:44;16.19;52.49
74946;HTU21D;63509;45.250;38.102;2023-09-19T01:08:11;16.16;52.57
74946;HTU21D;63509;45.250;38.102;2023-09-19T01:10:45;16.14;52.49
74946;HTU21D;63509;45.250;38.102;2023-09-19T01:13:25;16.11;52.56
74946;HTU21D;63509;45.250;38.102;2023-09-19T01:16:11;16.10;52.40
74946;HTU21D;63509;45.250;38.102;2023-09-19T01:18:55;16.10;52.42
74946;HTU21D;63509;45.250;38.102;2023-09-19T01:29:44;16.11;52.60
74946;HTU21D;63509;45.250;38.102;2023-09-19T01:32:13;16.07;52.67
74946;HTU21D;63509;45.250;38.102;2023-09-19T01:34:48;16.05;52.78
74946;HTU21D;63509;45.250;38.102;2023-09-19T01:37:16;16.01;52.88
74946;HTU21D;63509;45.250;38.102;2023-09-19T01:39:52;16.00;52.85
74946;HTU21D;63509;45.250;38.102;2023-09-19T01:51:05;15.86;53.07
74946;HTU21D;63509;45.250;38.102;2023-09-19T01:53:44;15.83;53.08
74946;HTU21D;63509;45.250;38.102;2023-09-19T01:56:19;15.78;53.23
74946;HTU21D;63509;45.250;38.102;2023-09-19T01:58:49;15.75;53.46
74946;HTU21D;63509;45.250;38.102;2023-09-19T02:01:21;15.74;53.50
74946;HTU21D;63509;45.250;38.102;2023-09-19T02:03:48;15.75;53.59
74946;HTU21D;63509;45.250;38.102;2023-09-19T02:06:16;15.77;53.58
74946;HTU21D;63509;45.250;38.102;2023-09-19T02:08:44;15.78;53.65
74946;HTU21D;63509;45.250;38.102;2023-09-19T02:11:11;15.78;53.62
74946;HTU21D;63509;45.250;38.102;2023-09-19T02:13:39;15.80;53.05
74946;HTU21D;63509;45.250;38.102;2023-09-19T02:16:06;15.80;53.42
74946;HTU21D;63509;45.250;38.102;2023-09-19T02:18:35;15.78;53.53
74946;HTU21D;63509;45.250;38.102;2023-09-19T02:21:02;15.76;53.60
74946;HTU21D;63509;45.250;38.102;2023-09-19T02:23:30;15.74;53.65
74946;HTU21D;63509;45.250;38.102;2023-09-19T02:25:59;15.73;53.65
74946;HTU21D;63509;45.250;38.102;2023-09-19T02:28:29;15.74;53.75
74946;HTU21D;63509;45.250;38.102;2023-09-19T02:30:58;15.73;53.84
74946;HTU21D;63509;45.250;38.102;2023-09-19T02:33:25;15.71;53.85
74946;HTU21D;63509;45.250;38.102;2023-09-19T02:35:56;15.72;53.78
74946;HTU21D;63509;45.250;38.102;2023-09-19T02:38:27;15.71;53.91
74946;HTU21D;63509;45.250;38.102;2023-09-19T02:40:55;15.69;53.98
74946;HTU21D;63509;45.250;38.102;2023-09-19T02:43:22;15.68;54.04
74946;HTU21D;63509;45.250;38.102;2023-09-19T02:45:49;15.68;54.10
74946;HTU21D;63509;45.250;38.102;2023-09-19T02:48:16;15.67;54.10
74946;HTU21D;63509;45.250;38.102;2023-09-19T02:50:42;15.65;54.13
74946;HTU21D;63509;45.250;38.102;2023-09-19T02:53:10;15.66;54.17
74946;HTU21D;63509;45.250;38.102;2023-09-19T02:55:38;15.63;54.20
74946;HTU21D;63509;45.250;38.102;2023-09-19T02:58:06;15.60;54.34
74946;HTU21D;63509;45.250;38.102;2023-09-19T03:00:41;15.59;54.38
74946;HTU21D;63509;45.250;38.102;2023-09-19T03:03:13;15.55;54.42
74946;HTU21D;63509;45.250;38.102;2023-09-19T03:05:42;15.52;54.47
74946;HTU21D;63509;45.250;38.102;2023-09-19T03:08:14;15.49;54.51
74946;HTU21D;63509;45.250;38.102;2023-09-19T03:10:46;15.46;54.57
74946;HTU21D;63509;45.250;38.102;2023-09-19T03:13:14;15.44;54.72
74946;HTU21D;63509;45.250;38.102;2023-09-19T03:15:41;15.39;54.79
74946;HTU21D;63509;45.250;38.102;2023-09-19T03:18:12;15.33;54.88
74946;HTU21D;63509;45.250;38.102;2023-09-19T03:20:39;15.29;54.97
74946;HTU21D;63509;45.250;38.102;2023-09-19T03:23:06;15.25;55.03
74946;HTU21D;63509;45.250;38.102;2023-09-19T03:25:34;15.19;55.10
74946;HTU21D;63509;45.250;38.102;2023-09-19T03:28:02;15.17;55.23
74946;HTU21D;63509;45.250;38.102;2023-09-19T03:30:32;15.13;55.32
74946;HTU21D;63509;45.250;38.102;2023-09-19T03:33:01;15.10;55.37
74946;HTU21D;63509;45.250;38.102;2023-09-19T03:35:29;15.09;55.41
74946;HTU21D;63509;45.250;38.102;2023-09-19T03:37:56;15.06;55.49
74946;HTU21D;63509;45.250;38.102;2023-09-19T03:40:23;15.06;55.52
74946;HTU21D;63509;45.250;38.102;2023-09-19T03:42:53;15.06;55.58
74946;HTU21D;63509;45.250;38.102;2023-09-19T03:45:19;15.06;55.68
74946;HTU21D;63509;45.250;38.102;2023-09-19T03:47:51;15.08;55.66
74946;HTU21D;63509;45.250;38.102;2023-09-19T03:50:20;15.08;55.68
74946;HTU21D;63509;45.250;38.102;2023-09-19T03:52:46;15.10;55.71
74946;HTU21D;63509;45.250;38.102;2023-09-19T03:55:12;15.12;55.73
74946;HTU21D;63509;45.250;38.102;2023-09-19T03:57:40;15.15;55.71
74946;HTU21D;63509;45.250;38.102;2023-09-19T04:00:08;15.18;55.71
74946;HTU21D;63509;45.250;38.102;2023-09-19T04:02:42;15.19;55.71
74946;HTU21D;63509;45.250;38.102;2023-09-19T04:05:08;15.23;55.79
74946;HTU21D;63509;45.250;38.102;2023-09-19T04:07:35;15.28;55.78
74946;HTU21D;63509;45.250;38.102;2023-09-19T04:10:01;15.30;55.80
74946;HTU21D;63509;45.250;38.102;2023-09-19T04:12:29;15.34;55.74
74946;HTU21D;63509;45.250;38.102;2023-09-19T04:14:56;15.37;55.73
74946;HTU21D;63509;45.250;38.102;2023-09-19T04:17:22;15.41;55.89
74946;HTU21D;63509;45.250;38.102;2023-09-19T04:19:49;15.43;55.84
74946;HTU21D;63509;45.250;38.102;2023-09-19T04:22:15;15.46;55.86
74946;HTU21D;63509;45.250;38.102;2023-09-19T04:24:41;15.51;55.85
74946;HTU21D;63509;45.250;38.102;2023-09-19T04:27:08;15.55;55.88
74946;HTU21D;63509;45.250;38.102;2023-09-19T04:29:35;15.59;55.84
74946;HTU21D;63509;45.250;38.102;2023-09-19T04:32:03;15.63;55.86
74946;HTU21D;63509;45.250;38.102;2023-09-19T04:34:30;15.68;55.87
74946;HTU21D;63509;45.250;38.102;2023-09-19T04:36:56;15.73;55.87
74946;HTU21D;63509;45.250;38.102;2023-09-19T04:39:26;15.80;55.84
74946;HTU21D;63509;45.250;38.102;2023-09-19T04:41:53;15.84;55.82
74946;HTU21D;63509;45.250;38.102;2023-09-19T04:44:19;15.92;55.80
74946;HTU21D;63509;45.250;38.102;2023-09-19T04:46:45;15.97;55.79
74946;HTU21D;63509;45.250;38.102;2023-09-19T04:49:14;16.03;55.78
74946;HTU21D;63509;45.250;38.102;2023-09-19T04:51:40;16.14;55.79
74946;HTU21D;63509;45.250;38.102;2023-09-19T04:54:06;16.21;55.84
74946;HTU21D;63509;45.250;38.102;2023-09-19T04:56:33;16.32;55.92
74946;HTU21D;63509;45.250;38.102;2023-09-19T04:58:59;16.46;55.88
74946;HTU21D;63509;45.250;38.102;2023-09-19T05:01:27;16.60;55.98
74946;HTU21D;63509;45.250;38.102;2023-09-19T05:03:53;16.74;56.03
74946;HTU21D;63509;45.250;38.102;2023-09-19T05:06:20;16.92;56.59
74946;HTU21D;63509;45.250;38.102;2023-09-19T05:08:54;17.15;56.57
74946;HTU21D;63509;45.250;38.102;2023-09-19T05:11:22;17.37;56.71
74946;HTU21D;63509;45.250;38.102;2023-09-19T05:13:49;17.61;57.55
74946;HTU21D;63509;45.250;38.102;2023-09-19T05:16:21;17.88;56.94
74946;HTU21D;63509;45.250;38.102;2023-09-19T05:18:48;18.13;57.29
74946;HTU21D;63509;45.250;38.102;2023-09-19T05:21:15;18.37;57.18
74946;HTU21D;63509;45.250;38.102;2023-09-19T05:23:41;18.64;56.90
74946;HTU21D;63509;45.250;38.102;2023-09-19T05:26:08;18.87;56.55
74946;HTU21D;63509;45.250;38.102;2023-09-19T05:28:34;19.08;56.19
74946;HTU21D;63509;45.250;38.102;2023-09-19T05:31:01;19.27;55.97
74946;HTU21D;63509;45.250;38.102;2023-09-19T05:33:32;19.50;55.78
74946;HTU21D;63509;45.250;38.102;2023-09-19T05:35:58;19.68;55.20
74946;HTU21D;63509;45.250;38.102;2023-09-19T05:38:25;19.89;55.11
74946;HTU21D;63509;45.250;38.102;2023-09-19T05:40:53;20.10;54.63
74946;HTU21D;63509;45.250;38.102;2023-09-19T05:43:19;20.29;54.07
74946;HTU21D;63509;45.250;38.102;2023-09-19T05:45:46;20.47;54.16
74946;HTU21D;63509;45.250;38.102;2023-09-19T05:48:14;20.65;53.64
74946;HTU21D;63509;45.250;38.102;2023-09-19T05:50:42;20.85;53.56
74946;HTU21D;63509;45.250;38.102;2023-09-19T05:53:09;21.05;52.88
74946;HTU21D;63509;45.250;38.102;2023-09-19T05:55:38;21.23;52.81
74946;HTU21D;63509;45.250;38.102;2023-09-19T05:58:04;21.40;52.27
74946;HTU21D;63509;45.250;38.102;2023-09-19T06:00:30;21.59;51.70
74946;HTU21D;63509;45.250;38.102;2023-09-19T06:02:58;21.73;51.56
74946;HTU21D;63509;45.250;38.102;2023-09-19T06:05:28;21.90;51.24
74946;HTU21D;63509;45.250;38.102;2023-09-19T06:07:56;22.04;50.87
74946;HTU21D;63509;45.250;38.102;2023-09-19T06:10:26;22.21;50.74
74946;HTU21D;63509;45.250;38.102;2023-09-19T06:12:53;22.38;51.21
74946;HTU21D;63509;45.250;38.102;2023-09-19T06:15:20;22.53;50.49
74946;HTU21D;63509;45.250;38.102;2023-09-19T06:17:54;22.70;49.95
74946;HTU21D;63509;45.250;38.102;2023-09-19T06:20:21;22.86;49.27
74946;HTU21D;63509;45.250;38.102;2023-09-19T06:22:49;23.02;48.93
74946;HTU21D;63509;45.250;38.102;2023-09-19T06:25:16;23.17;48.63
74946;HTU21D;63509;45.250;38.102;2023-09-19T06:27:46;23.34;48.31
74946;HTU21D;63509;45.250;38.102;2023-09-19T06:30:12;23.50;47.48
74946;HTU21D;63509;45.250;38.102;2023-09-19T06:32:40;23.61;47.17
74946;HTU21D;63509;45.250;38.102;2023-09-19T06:35:14;23.74;47.22
74946;HTU21D;63509;45.250;38.102;2023-09-19T06:37:41;23.89;46.57
74946;HTU21D;63509;45.250;38.102;2023-09-19T06:40:09;24.04;46.30
74946;HTU21D;63509;45.250;38.102;2023-09-19T06:42:42;24.16;45.84
74946;HTU21D;63509;45.250;38.102;2023-09-19T06:45:08;24.30;45.61
74946;HTU21D;63509;45.250;38.102;2023-09-19T06:47:37;24.43;45.25
74946;HTU21D;63509;45.250;38.102;2023-09-19T06:50:04;24.59;45.05
74946;HTU21D;63509;45.250;38.102;2023-09-19T06:52:32;24.74;44.83
74946;HTU21D;63509;45.250;38.102;2023-09-19T06:54:58;24.95;44.51
74946;HTU21D;63509;45.250;38.102;2023-09-19T06:57:25;25.15;44.12
74946;HTU21D;63509;45.250;38.102;2023-09-19T06:59:51;25.35;43.45
74946;HTU21D;63509;45.250;38.102;2023-09-19T07:02:17;25.50;43.10
74946;HTU21D;63509;45.250;38.102;2023-09-19T07:04:45;25.66;42.87
74946;HTU21D;63509;45.250;38.102;2023-09-19T07:07:11;25.84;42.43
74946;HTU21D;63509;45.250;38.102;2023-09-19T07:09:40;26.01;42.03
74946;HTU21D;63509;45.250;38.102;2023-09-19T07:12:08;26.10;43.40
74946;HTU21D;63509;45.250;38.102;2023-09-19T07:14:34;26.22;42.11
74946;HTU21D;63509;45.250;38.102;2023-09-19T07:17:01;26.37;41.55
74946;HTU21D;63509;45.250;38.102;2023-09-19T07:19:27;26.51;41.29
74946;HTU21D;63509;45.250;38.102;2023-09-19T07:21:57;26.65;40.78
74946;HTU21D;63509;45.250;38.102;2023-09-19T07:24:24;26.72;42.16
74946;HTU21D;63509;45.250;38.102;2023-09-19T07:26:53;26.78;40.65
74946;HTU21D;63509;45.250;38.102;2023-09-19T07:29:19;26.89;40.05
74946;HTU21D;63509;45.250;38.102;2023-09-19T07:31:45;26.96;39.77
74946;HTU21D;63509;45.250;38.102;2023-09-19T07:34:13;27.07;39.54
74946;HTU21D;63509;45.250;38.102;2023-09-19T07:36:41;27.17;39.21
74946;HTU21D;63509;45.250;38.102;2023-09-19T07:39:08;27.27;38.94
74946;HTU21D;63509;45.250;38.102;2023-09-19T07:41:34;27.37;38.59
74946;HTU21D;63509;45.250;38.102;2023-09-19T07:44:00;27.38;38.33
74946;HTU21D;63509;45.250;38.102;2023-09-19T07:46:27;27.44;38.21
74946;HTU21D;63509;45.250;38.102;2023-09-19T07:48:53;27.55;38.07
74946;HTU21D;63509;45.250;38.102;2023-09-19T07:51:19;27.64;37.62
74946;HTU21D;63509;45.250;38.102;2023-09-19T07:53:46;27.74;37.33
74946;HTU21D;63509;45.250;38.102;2023-09-19T07:56:14;27.80;36.92
74946;HTU21D;63509;45.250;38.102;2023-09-19T07:58:41;27.83;36.74
74946;HTU21D;63509;45.250;38.102;2023-09-19T08:01:10;27.86;36.63
74946;HTU21D;63509;45.250;38.102;2023-09-19T08:03:39;27.95;36.57
74946;HTU21D;63509;45.250;38.102;2023-09-19T08:06:09;28.06;36.34
74946;HTU21D;63509;45.250;38.102;2023-09-19T08:08:36;28.13;36.14
74946;HTU21D;63509;45.250;38.102;2023-09-19T08:11:05;28.25;36.11
74946;HTU21D;63509;45.250;38.102;2023-09-19T08:13:39;28.40;35.78
74946;HTU21D;63509;45.250;38.102;2023-09-19T08:16:15;28.56;35.56
74946;HTU21D;63509;45.250;38.102;2023-09-19T08:18:42;28.69;35.05
74946;HTU21D;63509;45.250;38.102;2023-09-19T08:21:11;28.78;34.91
74946;HTU21D;63509;45.250;38.102;2023-09-19T08:23:38;28.87;34.54
74946;HTU21D;63509;45.250;38.102;2023-09-19T08:26:05;28.90;34.34
74946;HTU21D;63509;45.250;38.102;2023-09-19T08:28:35;28.93;33.99
74946;HTU21D;63509;45.250;38.102;2023-09-19T08:31:03;28.90;33.85
74946;HTU21D;63509;45.250;38.102;2023-09-19T08:33:34;28.85;34.17
74946;HTU21D;63509;45.250;38.102;2023-09-19T08:36:04;28.88;33.95
74946;HTU21D;63509;45.250;38.102;2023-09-19T08:38:34;28.87;35.27
74946;HTU21D;63509;45.250;38.102;2023-09-19T08:41:07;28.84;34.37
74946;HTU21D;63509;45.250;38.102;2023-09-19T08:43:34;28.86;33.62
74946;HTU21D;63509;45.250;38.102;2023-09-19T08:46:12;28.93;33.91
74946;HTU21D;63509;45.250;38.102;2023-09-19T08:48:54;28.94;33.83
74946;HTU21D;63509;45.250;38.102;2023-09-19T08:51:44;28.98;33.31
74946;HTU21D;63509;45.250;38.102;2023-09-19T08:54:29;29.12;33.52
74946;HTU21D;63509;45.250;38.102;2023-09-19T08:57:00;29.21;33.12
74946;HTU21D;63509;45.250;38.102;2023-09-19T08:59:34;29.31;32.40
74946;HTU21D;63509;45.250;38.102;2023-09-19T09:02:01;29.38;31.90
74946;HTU21D;63509;45.250;38.102;2023-09-19T09:04:31;29.43;31.72
74946;HTU21D;63509;45.250;38.102;2023-09-19T09:07:01;29.46;31.70
74946;HTU21D;63509;45.250;38.102;2023-09-19T09:09:29;29.57;31.74
74946;HTU21D;63509;45.250;38.102;2023-09-19T09:11:58;29.67;31.75
74946;HTU21D;63509;45.250;38.102;2023-09-19T09:14:25;29.78;31.28
74946;HTU21D;63509;45.250;38.102;2023-09-19T09:16:51;29.92;30.93
74946;HTU21D;63509;45.250;38.102;2023-09-19T09:19:22;29.96;30.69
74946;HTU21D;63509;45.250;38.102;2023-09-19T09:21:52;30.04;30.73
74946;HTU21D;63509;45.250;38.102;2023-09-19T09:24:30;30.16;30.90
74946;HTU21D;63509;45.250;38.102;2023-09-19T09:27:04;30.20;30.58
74946;HTU21D;63509;45.250;38.102;2023-09-19T09:29:47;30.31;30.52
74946;HTU21D;63509;45.250;38.102;2023-09-19T09:32:33;30.38;29.83
74946;HTU21D;63509;45.250;38.102;2023-09-19T09:35:08;30.42;30.16
74946;HTU21D;63509;45.250;38.102;2023-09-19T09:37:43;30.47;29.84
74946;HTU21D;63509;45.250;38.102;2023-09-19T09:40:09;30.45;29.52
74946;HTU21D;63509;45.250;38.102;2023-09-19T09:42:41;30.49;29.37
74946;HTU21D;63509;45.250;38.102;2023-09-19T09:45:19;30.48;28.98
74946;HTU21D;63509;45.250;38.102;2023-09-19T09:48:03;30.37;28.94
74946;HTU21D;63509;45.250;38.102;2023-09-19T09:50:47;30.32;29.45
74946;HTU21D;63509;45.250;38.102;2023-09-19T09:53:28;30.36;29.45
74946;HTU21D;63509;45.250;38.102;2023-09-19T09:56:03;30.36;28.98
74946;HTU21D;63509;45.250;38.102;2023-09-19T09:58:37;30.37;28.91
74946;HTU21D;63509;45.250;38.102;2023-09-19T10:01:07;30.33;28.35
74946;HTU21D;63509;45.250;38.102;2023-09-19T10:03:41;30.27;28.36
74946;HTU21D;63509;45.250;38.102;2023-09-19T10:06:17;30.26;28.59
74946;HTU21D;63509;45.250;38.102;2023-09-19T10:11:34;30.22;27.97
74946;HTU21D;63509;45.250;38.102;2023-09-19T10:14:07;30.22;28.10
74946;HTU21D;63509;45.250;38.102;2023-09-19T10:16:35;30.26;27.81
74946;HTU21D;63509;45.250;38.102;2023-09-19T10:19:10;30.28;27.64
74946;HTU21D;63509;45.250;38.102;2023-09-19T10:21:42;30.35;27.64
74946;HTU21D;63509;45.250;38.102;2023-09-19T10:24:10;30.42;27.52
74946;HTU21D;63509;45.250;38.102;2023-09-19T10:26:37;30.48;27.33
74946;HTU21D;63509;45.250;38.102;2023-09-19T10:29:07;30.45;27.31
74946;HTU21D;63509;45.250;38.102;2023-09-19T10:31:37;30.40;27.25
74946;HTU21D;63509;45.250;38.102;2023-09-19T10:34:07;30.41;27.19
74946;HTU21D;63509;45.250;38.102;2023-09-19T10:36:36;30.44;27.05
74946;HTU21D;63509;45.250;38.102;2023-09-19T10:39:05;30.48;27.10
74946;HTU21D;63509;45.250;38.102;2023-09-19T10:41:34;30.53;26.76
74946;HTU21D;63509;45.250;38.102;2023-09-19T10:44:03;30.54;26.75
74946;HTU21D;63509;45.250;38.102;2023-09-19T10:46:32;30.56;26.50
74946;HTU21D;63509;45.250;38.102;2023-09-19T10:49:02;30.56;26.72
74946;HTU21D;63509;45.250;38.102;2023-09-19T10:51:40;30.62;26.82
74946;HTU21D;63509;45.250;38.102;2023-09-19T10:54:13;30.67;26.62
74946;HTU21D;63509;45.250;38.102;2023-09-19T10:56:49;30.74;26.59
74946;HTU21D;63509;45.250;38.102;2023-09-19T10:59:19;30.77;25.98
74946;HTU21D;63509;45.250;38.102;2023-09-19T11:01:54;30.74;26.12
74946;HTU21D;63509;45.250;38.102;2023-09-19T11:07:05;30.59;26.66
74946;HTU21D;63509;45.250;38.102;2023-09-19T11:09:56;30.55;26.59
74946;HTU21D;63509;45.250;38.102;2023-09-19T11:14:58;30.51;26.06
74946;HTU21D;63509;45.250;38.102;2023-09-19T11:17:39;30.52;26.23
74946;HTU21D;63509;45.250;38.102;2023-09-19T11:30:46;30.21;25.46
74946;HTU21D;63509;45.250;38.102;2023-09-19T11:36:15;30.17;25.84
74946;HTU21D;63509;45.250;38.102;2023-09-19T11:49:19;29.36;25.92
74946;HTU21D;63509;45.250;38.102;2023-09-19T11:51:52;29.32;26.04
74946;HTU21D;63509;45.250;38.102;2023-09-19T11:54:20;29.31;26.10
74946;HTU21D;63509;45.250;38.102;2023-09-19T11:56:53;29.33;26.22
74946;HTU21D;63509;45.250;38.102;2023-09-19T11:59:22;29.36;26.01
74946;HTU21D;63509;45.250;38.102;2023-09-19T12:01:53;29.37;25.89
74946;HTU21D;63509;45.250;38.102;2023-09-19T12:04:42;29.33;26.01
74946;HTU21D;63509;45.250;38.102;2023-09-19T12:07:17;29.31;25.68
74946;HTU21D;63509;45.250;38.102;2023-09-19T12:09:49;29.29;25.68
74946;HTU21D;63509;45.250;38.102;2023-09-19T12:12:20;29.30;25.70
74946;HTU21D;63509;45.250;38.102;2023-09-19T12:14:48;29.23;25.37
74946;HTU21D;63509;45.250;38.102;2023-09-19T12:17:15;29.12;25.35
74946;HTU21D;63509;45.250;38.102;2023-09-19T12:19:55;29.09;25.92
74946;HTU21D;63509;45.250;38.102;2023-09-19T12:22:24;29.04;25.58
74946;HTU21D;63509;45.250;38.102;2023-09-19T12:24:51;29.01;25.53
74946;HTU21D;63509;45.250;38.102;2023-09-19T12:27:20;28.93;25.47
74946;HTU21D;63509;45.250;38.102;2023-09-19T12:29:48;28.89;25.53
74946;HTU21D;63509;45.250;38.102;2023-09-19T12:32:34;28.83;25.97
74946;HTU21D;63509;45.250;38.102;2023-09-19T12:35:01;28.72;25.71
74946;HTU21D;63509;45.250;38.102;2023-09-19T12:37:33;28.63;25.87
74946;HTU21D;63509;45.250;38.102;2023-09-19T12:40:09;28.57;26.28
74946;HTU21D;63509;45.250;38.102;2023-09-19T12:42:48;28.49;26.25
74946;HTU21D;63509;45.250;38.102;2023-09-19T12:45:16;28.47;26.32
74946;HTU21D;63509;45.250;38.102;2023-09-19T12:48:21;28.47;26.55
74946;HTU21D;63509;45.250;38.102;2023-09-19T12:51:08;28.40;26.55
74946;HTU21D;63509;45.250;38.102;2023-09-19T12:53:45;28.32;26.60
74946;HTU21D;63509;45.250;38.102;2023-09-19T12:56:16;28.25;26.36
74946;HTU21D;63509;45.250;38.102;2023-09-19T12:58:54;28.17;26.61
74946;HTU21D;63509;45.250;38.102;2023-09-19T13:01:21;28.10;26.46
74946;HTU21D;63509;45.250;38.102;2023-09-19T13:04:15;28.05;26.84
74946;HTU21D;63509;45.250;38.102;2023-09-19T13:06:49;28.00;26.88
74946;HTU21D;63509;45.250;38.102;2023-09-19T13:09:19;27.95;26.72
74946;HTU21D;63509;45.250;38.102;2023-09-19T13:11:46;27.90;26.62
74946;HTU21D;63509;45.250;38.102;2023-09-19T13:14:25;27.88;26.83
74946;HTU21D;63509;45.250;38.102;2023-09-19T13:17:04;27.85;26.70
74946;HTU21D;63509;45.250;38.102;2023-09-19T13:19:46;27.80;26.92
74946;HTU21D;63509;45.250;38.102;2023-09-19T13:22:42;27.69;27.04
74946;HTU21D;63509;45.250;38.102;2023-09-19T13:25:16;27.58;26.79
74946;HTU21D;63509;45.250;38.102;2023-09-19T13:30:14;27.45;26.78
74946;HTU21D;63509;45.250;38.102;2023-09-19T13:32:41;27.39;26.79
74946;HTU21D;63509;45.250;38.102;2023-09-19T13:35:08;27.36;26.92
74946;HTU21D;63509;45.250;38.102;2023-09-19T13:37:35;27.35;27.08
74946;HTU21D;63509;45.250;38.102;2023-09-19T13:40:05;27.31;27.18
74946;HTU21D;63509;45.250;38.102;2023-09-19T13:42:32;27.30;27.13
74946;HTU21D;63509;45.250;38.102;2023-09-19T13:44:58;27.27;27.12
74946;HTU21D;63509;45.250;38.102;2023-09-19T13:47:24;27.25;27.12
74946;HTU21D;63509;45.250;38.102;2023-09-19T13:49:52;27.19;27.81
74946;HTU21D;63509;45.250;38.102;2023-09-19T13:52:21;27.12;27.60
74946;HTU21D;63509;45.250;38.102;2023-09-19T13:54:51;27.08;27.52
74946;HTU21D;63509;45.250;38.102;2023-09-19T13:57:18;27.00;27.39
74946;HTU21D;63509;45.250;38.102;2023-09-19T13:59:44;26.97;27.40
74946;HTU21D;63509;45.250;38.102;2023-09-19T14:02:11;26.92;27.30
74946;HTU21D;63509;45.250;38.102;2023-09-19T14:04:37;26.89;27.48
74946;HTU21D;63509;45.250;38.102;2023-09-19T14:07:03;26.84;27.39
74946;HTU21D;63509;45.250;38.102;2023-09-19T14:09:29;26.79;27.42
74946;HTU21D;63509;45.250;38.102;2023-09-19T14:11:55;26.76;27.47
74946;HTU21D;63509;45.250;38.102;2023-09-19T14:14:22;26.71;27.45
74946;HTU21D;63509;45.250;38.102;2023-09-19T14:16:49;26.66;27.47
74946;HTU21D;63509;45.250;38.102;2023-09-19T14:19:15;26.61;27.49
74946;HTU21D;63509;45.250;38.102;2023-09-19T14:21:42;26.55;27.68
74946;HTU21D;63509;45.250;38.102;2023-09-19T14:24:08;26.50;27.69
74946;HTU21D;63509;45.250;38.102;2023-09-19T14:26:38;26.45;27.90
74946;HTU21D;63509;45.250;38.102;2023-09-19T14:29:05;26.39;27.81
74946;HTU21D;63509;45.250;38.102;2023-09-19T14:31:33;26.34;27.95
74946;HTU21D;63509;45.250;38.102;2023-09-19T14:34:01;26.28;27.95
74946;HTU21D;63509;45.250;38.102;2023-09-19T14:36:27;26.22;28.07
74946;HTU21D;63509;45.250;38.102;2023-09-19T14:38:55;26.17;28.25
74946;HTU21D;63509;45.250;38.102;2023-09-19T14:41:23;26.11;28.26
74946;HTU21D;63509;45.250;38.102;2023-09-19T14:43:52;26.04;28.40
74946;HTU21D;63509;45.250;38.102;2023-09-19T14:46:18;25.98;28.47
74946;HTU21D;63509;45.250;38.102;2023-09-19T14:48:45;25.93;28.52
74946;HTU21D;63509;45.250;38.102;2023-09-19T14:51:14;25.88;28.55
74946;HTU21D;63509;45.250;38.102;2023-09-19T14:53:41;25.81;28.70
74946;HTU21D;63509;45.250;38.102;2023-09-19T14:56:08;25.75;28.78
74946;HTU21D;63509;45.250;38.102;2023-09-19T14:58:35;25.68;28.87
74946;HTU21D;63509;45.250;38.102;2023-09-19T15:01:06;25.62;29.03
74946;HTU21D;63509;45.250;38.102;2023-09-19T15:03:34;25.57;29.13
74946;HTU21D;63509;45.250;38.102;2023-09-19T15:06:04;25.49;29.25
74946;HTU21D;63509;45.250;38.102;2023-09-19T15:08:34;25.43;29.28
74946;HTU21D;63509;45.250;38.102;2023-09-19T15:11:01;25.36;29.42
74946;HTU21D;63509;45.250;38.102;2023-09-19T15:13:32;25.29;29.49
74946;HTU21D;63509;45.250;38.102;2023-09-19T15:16:02;25.22;29.61
74946;HTU21D;63509;45.250;38.102;2023-09-19T15:18:29;25.16;29.71
74946;HTU21D;63509;45.250;38.102;2023-09-19T15:21:03;25.10;29.92
74946;HTU21D;63509;45.250;38.102;2023-09-19T15:23:30;25.03;30.15
74946;HTU21D;63509;45.250;38.102;2023-09-19T15:25:58;24.98;30.35
74946;HTU21D;63509;45.250;38.102;2023-09-19T15:28:24;24.92;30.33
74946;HTU21D;63509;45.250;38.102;2023-09-19T15:30:56;24.88;30.51
74946;HTU21D;63509;45.250;38.102;2023-09-19T15:33:23;24.82;30.61
74946;HTU21D;63509;45.250;38.102;2023-09-19T15:35:49;24.77;30.65
74946;HTU21D;63509;45.250;38.102;2023-09-19T15:38:15;24.73;30.67
74946;HTU21D;63509;45.250;38.102;2023-09-19T15:40:47;24.69;30.80
74946;HTU21D;63509;45.250;38.102;2023-09-19T15:43:13;24.63;31.22
74946;HTU21D;63509;45.250;38.102;2023-09-19T15:45:43;24.59;31.23
74946;HTU21D;63509;45.250;38.102;2023-09-19T15:48:14;24.54;31.31
74946;HTU21D;63509;45.250;38.102;2023-09-19T15:50:40;24.48;31.37
74946;HTU21D;63509;45.250;38.102;2023-09-19T15:53:13;24.43;31.36
74946;HTU21D;63509;45.250;38.102;2023-09-19T15:55:40;24.36;32.38
74946;HTU21D;63509;45.250;38.102;2023-09-19T15:58:07;24.31;31.91
74946;HTU21D;63509;45.250;38.102;2023-09-19T16:00:33;24.28;32.19
74946;HTU21D;63509;45.250;38.102;2023-09-19T16:03:02;24.24;32.25
74946;HTU21D;63509;45.250;38.102;2023-09-19T16:05:35;24.17;32.71
74946;HTU21D;63509;45.250;38.102;2023-09-19T16:08:04;24.14;32.54
74946;HTU21D;63509;45.250;38.102;2023-09-19T16:10:38;24.09;32.63